Time;durP1;ratioP1;P1;durP2;ratioP2;P2;SDS_P1;SDS_P2;PMS_P1;PMS_P2;Temp;Humidity;BMP_temperature;BMP_pressure;BME280_temperature;BME280_humidity;BME280_pressure;Samples;Min_cycle;Max_cycle;Signal;HPM_P1;HPM_P2
2024/02/06 00:01:18;;;;;;;0.40;0.40;;;;;;;6.69;100.00;99575.34;5021989;28;20171;-58
2024/02/06 00:03:49;;;;;;;0.20;0.20;;;;;;;6.66;100.00;99564.25;5042003;28;20053;-58
2024/02/06 00:06:16;;;;;;;0.30;0.30;;;;;;;6.75;100.00;99562.19;5027129;28;20487;-58
2024/02/06 00:08:43;;;;;;;0.50;0.50;;;;;;;6.51;100.00;99564.50;5045339;28;20045;-59
2024/02/06 00:11:10;;;;;;;0.40;0.40;;;;;;;6.53;100.00;99554.47;5044703;28;20037;-59
2024/02/06 00:13:38;;;;;;;0.30;0.30;;;;;;;6.52;100.00;99547.50;5043999;28;20072;-59
2024/02/06 00:16:11;;;;;;;0.32;0.32;;;;;;;6.43;100.00;99554.06;5043357;28;20069;-59
2024/02/06 00:18:38;;;;;;;0.40;0.40;;;;;;;6.41;100.00;99556.13;5044306;28;20111;-59
2024/02/06 00:21:06;;;;;;;0.30;0.30;;;;;;;6.41;100.00;99548.13;5045452;28;20057;-59
2024/02/06 00:23:33;;;;;;;0.40;0.40;;;;;;;6.36;100.00;99553.25;5041085;28;20595;-59
2024/02/06 00:26:00;;;;;;;0.40;0.40;;;;;;;6.34;100.00;99550.81;5043576;28;20045;-59
2024/02/06 00:28:27;;;;;;;0.30;0.30;;;;;;;6.42;100.00;99542.59;5044252;28;20041;-59
2024/02/06 00:30:56;;;;;;;0.30;0.30;;;;;;;6.42;100.00;99541.78;5043116;28;20124;-59
2024/02/06 00:33:23;;;;;;;0.40;0.40;;;;;;;6.43;100.00;99536.25;5044893;28;20044;-59
2024/02/06 00:35:50;;;;;;;0.40;0.40;;;;;;;6.36;100.00;99535.44;5044338;28;20442;-59
2024/02/06 00:38:17;;;;;;;0.30;0.30;;;;;;;6.36;100.00;99537.28;5026114;28;20049;-58
2024/02/06 00:40:44;;;;;;;0.30;0.30;;;;;;;6.29;100.00;99531.16;5044691;28;20138;-59
2024/02/06 00:43:13;;;;;;;0.40;0.40;;;;;;;6.31;100.00;99527.25;5043838;28;20059;-59
2024/02/06 00:45:41;;;;;;;0.37;0.37;;;;;;;6.21;100.00;99533.00;5041667;28;20052;-59
2024/02/06 00:48:09;;;;;;;0.40;0.40;;;;;;;6.35;100.00;99533.81;5026928;28;20128;-59
2024/02/06 00:50:37;;;;;;;0.28;0.28;;;;;;;6.19;100.00;99531.56;5031750;28;20380;-58
2024/02/06 00:53:04;;;;;;;0.30;0.30;;;;;;;6.15;100.00;99533.03;5042015;28;20122;-58
2024/02/06 00:55:32;;;;;;;0.32;0.32;;;;;;;6.17;100.00;99529.13;5043655;28;20042;-59
2024/02/06 00:57:59;;;;;;;0.40;0.40;;;;;;;6.19;100.00;99524.41;5020529;28;20045;-59
2024/02/06 01:00:26;;;;;;;0.30;0.30;;;;;;;6.28;100.00;99521.53;5043893;28;20137;-59
2024/02/06 01:02:53;;;;;;;0.30;0.30;;;;;;;6.15;100.00;99525.84;5048323;28;20044;-59
2024/02/06 01:05:21;;;;;;;0.30;0.30;;;;;;;6.10;100.00;99517.66;5044317;28;20466;-59
2024/02/06 01:07:48;;;;;;;0.40;0.40;;;;;;;6.16;100.00;99511.50;5026105;28;20051;-59
2024/02/06 01:10:16;;;;;;;0.45;0.45;;;;;;;6.03;100.00;99511.53;5042942;28;20041;-59
2024/02/06 01:12:43;;;;;;;0.40;0.40;;;;;;;6.04;100.00;99513.16;5042306;28;20499;-59
2024/02/06 01:15:10;;;;;;;0.32;0.32;;;;;;;5.98;100.00;99514.78;5042200;28;20052;-59
2024/02/06 01:17:37;;;;;;;0.40;0.40;;;;;;;5.97;100.00;99512.38;5045072;28;20407;-59
2024/02/06 01:20:05;;;;;;;0.40;0.40;;;;;;;6.06;100.00;99511.09;5044391;28;20049;-58
2024/02/06 01:22:34;;;;;;;0.40;0.40;;;;;;;6.12;100.00;99512.97;5030526;28;20057;-59
2024/02/06 01:25:01;;;;;;;0.40;0.40;;;;;;;6.10;100.00;99509.69;5030770;28;20048;-59
2024/02/06 01:27:28;;;;;;;0.35;0.35;;;;;;;6.06;100.00;99511.09;5020294;28;20056;-59
2024/02/06 01:29:55;;;;;;;0.50;0.50;;;;;;;6.10;100.00;99507.03;5041373;28;20052;-59
2024/02/06 01:32:22;;;;;;;0.40;0.40;;;;;;;5.88;100.00;99505.56;5023033;28;20076;-59
2024/02/06 01:34:49;;;;;;;0.40;0.40;;;;;;;6.03;100.00;99504.34;5021969;28;20501;-59
2024/02/06 01:37:16;;;;;;;0.40;0.40;;;;;;;5.87;100.00;99511.94;5038882;28;20532;-59
2024/02/06 01:39:45;;;;;;;0.30;0.30;;;;;;;5.83;100.00;99509.66;5024722;28;20087;-58
2024/02/06 01:42:12;;;;;;;0.32;0.32;;;;;;;5.81;100.00;99506.38;5038333;28;20041;-58
2024/02/06 01:44:39;;;;;;;0.50;0.50;;;;;;;5.93;100.00;99509.25;5042008;28;20044;-59
2024/02/06 01:47:08;;;;;;;0.40;0.40;;;;;;;6.08;100.00;99503.75;5040432;28;20072;-59
2024/02/06 01:49:35;;;;;;;0.40;0.40;;;;;;;5.84;100.00;99513.97;5043018;28;20049;-59
2024/02/06 01:52:02;;;;;;;0.32;0.32;;;;;;;5.90;100.00;99506.19;5020777;28;20068;-59
2024/02/06 01:54:29;;;;;;;0.40;0.40;;;;;;;5.93;100.00;99500.44;5022656;28;20029;-59
2024/02/06 01:56:57;;;;;;;0.38;0.38;;;;;;;5.75;100.00;99496.56;5026323;28;20140;-58
2024/02/06 01:59:25;;;;;;;0.40;0.40;;;;;;;5.88;100.00;99492.28;5041625;28;20037;-58
2024/02/06 02:01:52;;;;;;;0.32;0.32;;;;;;;5.84;100.00;99489.19;5042074;28;20036;-59
2024/02/06 02:04:19;;;;;;;0.40;0.40;;;;;;;5.79;100.00;99489.81;5041734;28;20045;-58
2024/02/06 02:06:46;;;;;;;0.40;0.40;;;;;;;5.87;100.00;99488.78;5036192;28;20045;-59
2024/02/06 02:09:14;;;;;;;0.40;0.40;;;;;;;5.85;100.00;99482.84;5040345;28;20110;-59
2024/02/06 02:11:41;;;;;;;0.40;0.40;;;;;;;5.80;100.00;99487.97;5041563;28;20407;-58
2024/02/06 02:14:10;;;;;;;0.40;0.40;;;;;;;5.84;100.00;99476.72;5046195;28;20063;-59
2024/02/06 02:16:37;;;;;;;0.30;0.30;;;;;;;5.72;100.00;99477.56;5039172;28;20048;-59
2024/02/06 02:19:04;;;;;;;0.30;0.30;;;;;;;5.84;100.00;99476.72;5042783;28;20624;-59
2024/02/06 02:21:34;;;;;;;0.30;0.30;;;;;;;5.87;100.00;99474.69;5039958;28;20190;-59
2024/02/06 02:24:03;;;;;;;0.50;0.50;;;;;;;5.87;100.00;99464.84;5036626;28;20080;-59
2024/02/06 02:26:30;;;;;;;0.40;0.40;;;;;;;5.92;100.00;99467.72;5037002;28;20100;-59
2024/02/06 02:28:57;;;;;;;0.40;0.40;;;;;;;5.92;100.00;99466.91;5037541;28;20068;-59
2024/02/06 02:31:24;;;;;;;0.30;0.30;;;;;;;5.86;100.00;99462.38;5021033;28;20056;-58
2024/02/06 02:33:51;;;;;;;0.38;0.38;;;;;;;5.91;100.00;99466.06;5040822;28;20033;-59
2024/02/06 02:36:18;;;;;;;0.35;0.35;;;;;;;5.99;100.00;99465.06;5042715;28;20103;-59
2024/02/06 02:38:46;;;;;;;0.40;0.40;;;;;;;5.90;100.00;99474.25;5041619;28;20052;-58
2024/02/06 02:41:14;;;;;;;0.40;0.40;;;;;;;5.95;100.00;99471.84;5041653;28;20052;-58
2024/02/06 02:43:41;;;;;;;0.40;0.40;;;;;;;5.82;100.00;99467.31;5039834;28;20044;-58
2024/02/06 02:46:11;;;;;;;0.50;0.50;;;;;;;5.80;100.00;99475.47;5041104;28;20045;-59
2024/02/06 02:48:38;;;;;;;0.30;0.30;;;;;;;5.90;100.00;99467.09;5036029;28;20060;-59
2024/02/06 02:51:05;;;;;;;0.40;0.40;;;;;;;5.92;100.00;99469.56;5034195;28;20045;-59
2024/02/06 02:53:34;;;;;;;0.40;0.40;;;;;;;5.93;100.00;99464.00;5039046;28;20167;-59
2024/02/06 02:56:02;;;;;;;0.40;0.40;;;;;;;5.94;100.00;99464.84;5039895;28;20043;-59
2024/02/06 02:58:29;;;;;;;0.35;0.35;;;;;;;5.93;100.00;99466.69;5041956;28;20549;-59
2024/02/06 03:00:56;;;;;;;0.30;0.30;;;;;;;5.87;100.00;99461.38;5039480;28;20056;-58
2024/02/06 03:03:23;;;;;;;0.35;0.35;;;;;;;5.90;100.00;99452.97;5023919;28;20587;-58
2024/02/06 03:05:50;;;;;;;0.40;0.40;;;;;;;5.87;100.00;99448.91;5040531;28;20040;-59
2024/02/06 03:08:19;;;;;;;0.40;0.40;;;;;;;5.90;100.00;99447.66;5043992;28;20047;-58
2024/02/06 03:10:47;;;;;;;0.45;0.45;;;;;;;5.94;100.00;99438.25;5004743;28;20052;-58
2024/02/06 03:13:16;;;;;;;0.43;0.43;;;;;;;5.78;100.00;99439.47;5022666;28;20044;-58
2024/02/06 03:15:43;;;;;;;0.30;0.30;;;;;;;5.89;100.00;99430.03;5039871;28;20037;-59
2024/02/06 03:18:10;;;;;;;0.50;0.50;;;;;;;5.77;100.00;99429.88;5041217;28;20045;-58
2024/02/06 03:20:37;;;;;;;0.40;0.40;;;;;;;5.88;100.00;99428.41;5039613;28;20083;-59
2024/02/06 03:23:05;;;;;;;0.40;0.40;;;;;;;5.74;100.00;99417.81;5039329;28;20499;-58
2024/02/06 03:25:32;;;;;;;0.50;0.50;;;;;;;5.90;100.00;99435.16;5021245;28;20626;-59
2024/02/06 03:27:59;;;;;;;0.40;0.40;;;;;;;5.82;100.00;99420.25;5039882;28;20132;-58
2024/02/06 03:30:28;;;;;;;0.50;0.50;;;;;;;5.76;100.00;99421.06;5041432;28;20053;-58
2024/02/06 03:32:55;;;;;;;0.30;0.30;;;;;;;5.87;100.00;99421.47;5037067;28;20045;-58
2024/02/06 03:35:22;;;;;;;0.40;0.40;;;;;;;5.72;100.00;99419.03;5038238;28;20135;-58
2024/02/06 03:37:49;;;;;;;0.30;0.30;;;;;;;5.77;100.00;99417.38;5037886;28;20052;-59
2024/02/06 03:40:16;;;;;;;0.32;0.32;;;;;;;5.81;100.00;99413.28;5041695;28;20110;-59
2024/02/06 03:42:44;;;;;;;0.47;0.47;;;;;;;5.80;100.00;99416.16;5032816;28;20033;-59
2024/02/06 03:45:11;;;;;;;0.40;0.40;;;;;;;5.77;100.00;99412.06;5022012;28;20050;-58
2024/02/06 03:47:39;;;;;;;0.50;0.50;;;;;;;5.74;100.00;99412.50;4981053;28;1176278;-59
2024/02/06 03:50:08;;;;;;;0.40;0.40;;;;;;;5.82;100.00;99414.94;5040911;28;20049;-59
2024/02/06 03:52:35;;;;;;;0.40;0.40;;;;;;;5.85;100.00;99408.38;5036298;28;20048;-59
2024/02/06 03:55:02;;;;;;;0.38;0.38;;;;;;;5.81;100.00;99407.94;5038794;28;20057;-58
2024/02/06 03:57:29;;;;;;;0.50;0.50;;;;;;;5.92;100.00;99408.38;5041375;28;20048;-58
2024/02/06 03:59:56;;;;;;;0.40;0.40;;;;;;;5.84;100.00;99402.25;5040165;28;20132;-58
2024/02/06 04:02:23;;;;;;;0.30;0.30;;;;;;;5.94;100.00;99406.31;5041364;28;20114;-58
2024/02/06 04:04:52;;;;;;;0.40;0.40;;;;;;;5.85;100.00;99403.06;5040187;28;20033;-58
2024/02/06 04:07:21;;;;;;;0.40;0.40;;;;;;;6.05;100.00;99408.38;5034972;28;20045;-58
2024/02/06 04:09:49;;;;;;;0.40;0.40;;;;;;;5.96;100.00;99404.28;5020563;28;20098;-59
2024/02/06 04:12:16;;;;;;;0.40;0.40;;;;;;;6.08;100.00;99413.25;5039148;28;20428;-59
2024/02/06 04:14:43;;;;;;;0.40;0.40;;;;;;;6.06;100.00;99404.66;5040776;28;20067;-58
2024/02/06 04:17:10;;;;;;;0.30;0.30;;;;;;;6.09;100.00;99406.94;5040689;28;20037;-58
2024/02/06 04:19:37;;;;;;;0.40;0.40;;;;;;;6.11;100.00;99406.72;5020352;28;20609;-59
2024/02/06 04:22:06;;;;;;;0.40;0.40;;;;;;;6.16;100.00;99402.38;5023224;28;20870;-59
2024/02/06 04:24:33;;;;;;;0.30;0.30;;;;;;;6.04;100.00;99394.25;5039952;28;20413;-59
2024/02/06 04:27:00;;;;;;;0.32;0.32;;;;;;;6.05;100.00;99397.72;5036050;28;20584;-59
2024/02/06 04:29:28;;;;;;;0.35;0.35;;;;;;;5.99;100.00;99387.91;5036517;28;20045;-59
2024/02/06 04:31:55;;;;;;;0.30;0.30;;;;;;;6.09;100.00;99385.66;5039506;28;20176;-57
2024/02/06 04:34:22;;;;;;;0.40;0.40;;;;;;;6.04;100.00;99386.25;5039654;28;20033;-59
2024/02/06 04:36:49;;;;;;;0.40;0.40;;;;;;;5.99;100.00;99377.25;5039825;28;20040;-59
2024/02/06 04:39:18;;;;;;;0.35;0.35;;;;;;;6.12;100.00;99373.75;5041451;28;20041;-58
2024/02/06 04:41:46;;;;;;;0.40;0.40;;;;;;;6.08;100.00;99375.19;5039051;28;20320;-59
2024/02/06 04:44:15;;;;;;;0.40;0.40;;;;;;;6.19;100.00;99362.06;5023180;28;20255;-59
2024/02/06 04:46:42;;;;;;;0.30;0.30;;;;;;;6.04;100.00;99366.78;5040757;28;20029;-59
2024/02/06 04:49:10;;;;;;;0.40;0.40;;;;;;;6.12;100.00;99366.59;5044790;28;20090;-59
2024/02/06 04:51:37;;;;;;;0.47;0.47;;;;;;;6.05;100.00;99361.28;5022491;28;20072;-59
2024/02/06 04:54:05;;;;;;;0.40;0.40;;;;;;;6.11;100.00;99370.25;5041260;28;20040;-59
2024/02/06 04:56:34;;;;;;;0.40;0.40;;;;;;;6.12;100.00;99360.47;5007560;28;20044;-59
2024/02/06 04:59:01;;;;;;;0.40;0.40;;;;;;;6.12;100.00;99361.25;5009137;28;20574;-59
2024/02/06 05:01:29;;;;;;;0.40;0.40;;;;;;;6.09;100.00;99358.19;5043605;28;20371;-58
2024/02/06 05:03:56;;;;;;;0.35;0.35;;;;;;;6.11;100.00;99359.63;5040667;28;20138;-58
2024/02/06 05:06:23;;;;;;;0.40;0.40;;;;;;;6.10;100.00;99363.31;5024759;28;20037;-58
2024/02/06 05:08:50;;;;;;;0.40;0.40;;;;;;;6.24;100.00;99367.56;5045813;28;20037;-58
2024/02/06 05:11:18;;;;;;;0.30;0.30;;;;;;;6.15;100.00;99371.50;5042090;28;20091;-59
2024/02/06 05:13:47;;;;;;;0.30;0.30;;;;;;;6.15;100.00;99368.81;5042916;28;20582;-58
2024/02/06 05:16:16;;;;;;;0.45;0.45;;;;;;;6.10;100.00;99368.63;5043885;28;20169;-58
2024/02/06 05:18:44;;;;;;;0.40;0.40;;;;;;;6.20;100.00;99363.69;5021051;28;20140;-58
2024/02/06 05:21:11;;;;;;;0.40;0.40;;;;;;;6.17;100.00;99364.13;5022823;28;20141;-58
2024/02/06 05:23:38;;;;;;;0.40;0.40;;;;;;;6.23;100.00;99371.25;5040002;28;20056;-59
2024/02/06 05:26:06;;;;;;;0.30;0.30;;;;;;;6.21;100.00;99362.66;5041719;28;20041;-58
2024/02/06 05:28:33;;;;;;;0.40;0.40;;;;;;;6.27;100.00;99369.00;5024460;28;20069;-58
2024/02/06 05:31:02;;;;;;;0.40;0.40;;;;;;;6.30;100.00;99357.91;5036916;28;20041;-59
2024/02/06 05:33:30;;;;;;;0.40;0.40;;;;;;;6.24;100.00;99351.59;5043938;28;20519;-59
2024/02/06 05:35:57;;;;;;;0.40;0.40;;;;;;;6.20;100.00;99353.03;5024862;28;20079;-59
2024/02/06 05:38:25;;;;;;;0.40;0.40;;;;;;;6.03;100.00;99351.88;5042493;28;20505;-59
2024/02/06 05:40:52;;;;;;;0.30;0.30;;;;;;;6.20;100.00;99347.72;5042797;28;20128;-59
2024/02/06 05:43:19;;;;;;;0.40;0.40;;;;;;;6.11;100.00;99348.97;5012622;28;20128;-59
2024/02/06 05:45:46;;;;;;;0.40;0.40;;;;;;;6.20;100.00;99350.38;5042599;28;20049;-59
2024/02/06 05:48:15;;;;;;;0.40;0.40;;;;;;;6.23;100.00;99347.28;5023694;28;20115;-59
2024/02/06 05:50:42;;;;;;;0.30;0.30;;;;;;;6.06;100.00;99348.78;5040968;28;20064;-59
2024/02/06 05:53:09;;;;;;;0.40;0.40;;;;;;;6.02;100.00;99348.41;5041267;28;20076;-59
2024/02/06 05:55:36;;;;;;;0.30;0.30;;;;;;;6.12;100.00;99334.66;5036334;28;20152;-59
2024/02/06 05:58:04;;;;;;;0.50;0.50;;;;;;;6.21;100.00;99335.22;5022776;28;20044;-59
2024/02/06 06:00:31;;;;;;;0.40;0.40;;;;;;;6.14;100.00;99329.94;5040382;28;20103;-59
2024/02/06 06:02:59;;;;;;;0.40;0.40;;;;;;;6.23;100.00;99326.00;5038668;28;20091;-59
2024/02/06 06:05:27;;;;;;;0.40;0.40;;;;;;;6.14;100.00;99319.31;5042565;28;20037;-59
2024/02/06 06:07:54;;;;;;;0.30;0.30;;;;;;;6.09;100.00;99329.75;5036044;28;20205;-59
2024/02/06 06:10:21;;;;;;;0.40;0.40;;;;;;;6.21;100.00;99321.91;5039012;28;20542;-59
2024/02/06 06:12:48;;;;;;;0.50;0.50;;;;;;;6.21;100.00;99320.06;5024638;28;20531;-59
2024/02/06 06:15:16;;;;;;;0.30;0.30;;;;;;;6.25;100.00;99323.13;5024561;28;20041;-59
2024/02/06 06:17:43;;;;;;;0.40;0.40;;;;;;;6.07;100.00;99329.16;5038143;28;20048;-59
2024/02/06 06:20:11;;;;;;;0.40;0.40;;;;;;;6.02;100.00;99323.66;5038704;28;20044;-59
2024/02/06 06:22:40;;;;;;;0.50;0.50;;;;;;;6.16;100.00;99321.72;5030877;28;20049;-59
2024/02/06 06:25:07;;;;;;;0.50;0.50;;;;;;;6.13;100.00;99309.66;5016235;28;20041;-59
2024/02/06 06:27:36;;;;;;;0.40;0.40;;;;;;;6.09;100.00;99312.97;5025972;28;20041;-59
2024/02/06 06:30:05;;;;;;;0.30;0.30;;;;;;;6.09;100.00;99313.78;5004499;28;20381;-59
2024/02/06 06:32:32;;;;;;;0.40;0.40;;;;;;;6.14;100.00;99311.31;5026870;28;20045;-59
2024/02/06 06:34:59;;;;;;;0.40;0.40;;;;;;;6.14;100.00;99306.00;5014684;28;20525;-59
2024/02/06 06:37:27;;;;;;;0.40;0.40;;;;;;;6.08;100.00;99312.16;4998996;28;20439;-59
2024/02/06 06:39:56;;;;;;;0.40;0.40;;;;;;;6.11;100.00;99316.22;5040162;28;20471;-59
2024/02/06 06:42:25;;;;;;;0.40;0.40;;;;;;;6.11;100.00;99306.41;5015488;28;20044;-59
2024/02/06 06:44:52;;;;;;;0.40;0.40;;;;;;;6.14;100.00;99316.63;5020329;28;20083;-59
2024/02/06 06:47:19;;;;;;;0.30;0.30;;;;;;;6.14;100.00;99313.13;5036560;28;20056;-59
2024/02/06 06:49:46;;;;;;;0.40;0.40;;;;;;;6.13;100.00;99303.53;5035594;28;20045;-59
2024/02/06 06:52:13;;;;;;;0.40;0.40;;;;;;;6.16;100.00;99309.22;5039898;28;20144;-59
2024/02/06 06:54:41;;;;;;;0.43;0.43;;;;;;;6.15;100.00;99312.94;5040175;28;20167;-59
2024/02/06 06:57:10;;;;;;;0.47;0.47;;;;;;;6.28;100.00;99301.41;5038559;28;20045;-58
2024/02/06 06:59:37;;;;;;;0.40;0.40;;;;;;;6.31;100.00;99305.50;5013495;28;20401;-59
2024/02/06 07:02:04;;;;;;;0.40;0.40;;;;;;;6.35;100.00;99302.19;5013161;28;20557;-59
2024/02/06 07:04:31;;;;;;;0.40;0.40;;;;;;;6.28;100.00;99301.41;5036733;28;20134;-59
2024/02/06 07:06:58;;;;;;;0.43;0.43;;;;;;;6.31;100.00;99313.47;5040031;28;20049;-59
2024/02/06 07:09:26;;;;;;;0.30;0.30;;;;;;;6.32;100.00;99307.94;5031156;28;20412;-59
2024/02/06 07:11:54;;;;;;;0.30;0.30;;;;;;;6.21;100.00;99295.28;5038644;28;20060;-59
2024/02/06 07:14:22;;;;;;;0.30;0.30;;;;;;;6.17;100.00;99297.56;5040333;28;20060;-59
2024/02/06 07:16:49;;;;;;;0.30;0.30;;;;;;;6.37;100.00;99294.81;5040266;28;20060;-59
2024/02/06 07:19:17;;;;;;;0.40;0.40;;;;;;;6.35;100.00;99299.53;5040786;28;20044;-59
2024/02/06 07:21:54;;;;;;;0.35;0.35;;;;;;;6.35;100.00;99304.84;5040059;28;20518;-59
2024/02/06 07:24:21;;;;;;;0.40;0.40;;;;;;;6.37;100.00;99302.00;5037031;28;20091;-59
2024/02/06 07:26:48;;;;;;;0.30;0.30;;;;;;;6.37;100.00;99302.00;5040571;28;20045;-59
2024/02/06 07:29:16;;;;;;;0.40;0.40;;;;;;;6.34;100.00;99303.25;5038548;28;20060;-59
2024/02/06 07:31:44;;;;;;;0.40;0.40;;;;;;;6.36;100.00;99305.66;5017704;28;20052;-59
2024/02/06 07:34:12;;;;;;;0.32;0.32;;;;;;;6.40;100.00;99306.88;5040571;28;20507;-59
2024/02/06 07:36:39;;;;;;;0.40;0.40;;;;;;;6.39;100.00;99286.59;5035716;28;20052;-59
2024/02/06 07:39:06;;;;;;;0.30;0.30;;;;;;;6.47;100.00;99297.03;5040541;28;20593;-59
2024/02/06 07:41:33;;;;;;;0.30;0.30;;;;;;;6.46;100.00;99295.38;5035094;28;20123;-59
2024/02/06 07:44:01;;;;;;;0.30;0.30;;;;;;;6.47;100.00;99294.34;5022808;28;20045;-59
2024/02/06 07:46:28;;;;;;;0.40;0.40;;;;;;;6.52;100.00;99301.72;5003232;28;20059;-59
2024/02/06 07:48:56;;;;;;;0.40;0.40;;;;;;;6.41;100.00;99289.88;5021387;28;20044;-59
2024/02/06 07:51:25;;;;;;;0.43;0.43;;;;;;;6.45;100.00;99285.75;5013940;28;20088;-59
2024/02/06 07:53:52;;;;;;;0.30;0.30;;;;;;;6.50;100.00;99299.25;5040643;28;20310;-59
2024/02/06 07:56:20;;;;;;;0.32;0.32;;;;;;;6.47;100.00;99305.00;5040620;28;20048;-59
2024/02/06 07:58:47;;;;;;;0.40;0.40;;;;;;;6.48;100.00;99293.31;5039879;28;20045;-59
2024/02/06 08:01:15;;;;;;;0.38;0.38;;;;;;;6.67;100.00;99295.03;5038551;28;20041;-59
2024/02/06 08:03:42;;;;;;;0.40;0.40;;;;;;;6.81;100.00;99310.91;5021504;28;20045;-59
2024/02/06 08:06:11;;;;;;;0.40;0.40;;;;;;;6.79;100.00;99302.31;5038366;28;20053;-59
2024/02/06 08:08:38;;;;;;;0.40;0.40;;;;;;;6.57;100.00;99305.34;5042227;28;20068;-60
2024/02/06 08:11:05;;;;;;;0.40;0.40;;;;;;;6.75;100.00;99307.28;5038273;28;20561;-59
2024/02/06 08:13:33;;;;;;;0.40;0.40;;;;;;;7.11;100.00;99298.63;5038886;28;20044;-60
2024/02/06 08:16:00;;;;;;;0.40;0.40;;;;;;;7.25;100.00;99303.81;5037709;28;20041;-59
2024/02/06 08:18:28;;;;;;;0.40;0.40;;;;;;;6.77;100.00;99310.56;5038061;28;20476;-58
2024/02/06 08:20:55;;;;;;;0.35;0.35;;;;;;;6.87;100.00;99310.06;5037648;28;20052;-59
2024/02/06 08:23:24;;;;;;;0.40;0.40;;;;;;;6.77;100.00;99288.44;5027463;28;20075;-59
2024/02/06 08:25:51;;;;;;;0.35;0.35;;;;;;;6.76;100.00;99305.44;5044134;28;20135;-59
2024/02/06 08:28:18;;;;;;;0.40;0.40;;;;;;;6.74;100.00;99300.34;5042984;28;20045;-59
2024/02/06 08:30:48;;;;;;;0.40;0.40;;;;;;;6.86;100.00;99297.78;5005202;28;20506;-59
2024/02/06 08:33:15;;;;;;;0.33;0.33;;;;;;;6.81;100.00;99301.06;5024728;28;20087;-59
2024/02/06 08:35:42;;;;;;;0.40;0.40;;;;;;;6.71;100.00;99306.06;5043518;28;20041;-59
2024/02/06 08:38:09;;;;;;;0.40;0.40;;;;;;;6.83;100.00;99301.69;5044002;28;20045;-59
2024/02/06 08:40:39;;;;;;;0.40;0.40;;;;;;;6.74;100.00;99304.81;5043988;28;20306;-60
2024/02/06 08:43:07;;;;;;;0.40;0.40;;;;;;;6.65;100.00;99313.06;5043041;28;20072;-59
2024/02/06 08:45:34;;;;;;;0.50;0.50;;;;;;;6.79;100.00;99311.16;5043151;28;20044;-58
2024/02/06 08:48:03;;;;;;;0.40;0.40;;;;;;;6.72;100.00;99305.06;5040383;28;20135;-59
2024/02/06 08:50:33;;;;;;;0.40;0.40;;;;;;;6.61;100.00;99308.38;5044223;28;20045;-59
2024/02/06 08:53:00;;;;;;;0.40;0.40;;;;;;;6.68;100.00;99302.00;5041888;28;20056;-59
2024/02/06 08:55:27;;;;;;;0.45;0.45;;;;;;;6.59;100.00;99300.63;5042027;28;20041;-59
2024/02/06 08:57:56;;;;;;;0.40;0.40;;;;;;;6.82;100.00;99301.91;5043294;28;20044;-59
2024/02/06 09:00:23;;;;;;;0.35;0.35;;;;;;;7.06;100.00;99293.13;5043458;28;20037;-59
2024/02/06 09:02:50;;;;;;;0.38;0.38;;;;;;;7.05;100.00;99291.47;5025989;28;20080;-58
2024/02/06 09:05:18;;;;;;;0.35;0.35;;;;;;;7.75;100.00;99277.06;5024068;28;20514;-59
2024/02/06 09:07:45;;;;;;;0.30;0.30;;;;;;;7.92;100.00;99288.75;5043132;28;20045;-59
2024/02/06 09:10:12;;;;;;;0.40;0.40;;;;;;;8.03;100.00;99283.72;5042832;28;20049;-59
2024/02/06 09:12:39;;;;;;;0.30;0.30;;;;;;;7.69;100.00;99286.78;5024937;28;20045;-59
2024/02/06 09:15:08;;;;;;;0.30;0.30;;;;;;;7.86;100.00;99284.31;5041880;28;20051;-59
2024/02/06 09:17:37;;;;;;;0.40;0.40;;;;;;;7.77;100.00;99283.78;5044009;28;20695;-59
2024/02/06 09:20:05;;;;;;;0.30;0.30;;;;;;;7.32;100.00;99283.25;5041818;28;20037;-59
2024/02/06 09:22:32;;;;;;;0.30;0.30;;;;;;;7.68;100.00;99289.66;5043566;28;20037;-59
2024/02/06 09:25:00;;;;;;;0.20;0.20;;;;;;;7.69;100.00;99288.63;5043461;28;20049;-59
2024/02/06 09:27:27;;;;;;;0.38;0.38;;;;;;;7.04;100.00;99300.50;5038560;28;20048;-59
2024/02/06 09:29:54;;;;;;;0.40;0.40;;;;;;;7.05;100.00;99296.00;5042344;28;20041;-59
2024/02/06 09:32:22;;;;;;;0.30;0.30;;;;;;;7.08;100.00;99296.34;5040578;28;20060;-59
2024/02/06 09:34:49;;;;;;;0.32;0.32;;;;;;;6.93;100.00;99298.53;5041705;28;20049;-58
2024/02/06 09:37:16;;;;;;;0.30;0.30;;;;;;;7.10;100.00;99298.81;5041390;28;20044;-59
2024/02/06 09:39:44;;;;;;;0.40;0.40;;;;;;;6.97;100.00;99297.09;5039977;28;20040;-59
2024/02/06 09:42:11;;;;;;;0.30;0.30;;;;;;;7.05;100.00;99296.00;5041062;28;20049;-59
2024/02/06 09:44:39;;;;;;;0.38;0.38;;;;;;;7.19;100.00;99299.34;5030013;28;20337;-59
2024/02/06 09:47:06;;;;;;;0.40;0.40;;;;;;;7.18;100.00;99295.06;5023123;28;21645;-60
2024/02/06 09:49:34;;;;;;;0.30;0.30;;;;;;;7.02;100.00;99301.75;5023690;28;20033;-59
2024/02/06 09:52:02;;;;;;;0.30;0.30;;;;;;;7.16;100.00;99297.13;5039328;28;20480;-60
2024/02/06 09:54:29;;;;;;;0.40;0.40;;;;;;;6.89;100.00;99292.03;5042817;28;20052;-61
2024/02/06 09:56:57;;;;;;;0.30;0.30;;;;;;;7.04;100.00;99305.84;5035609;28;20407;-61
2024/02/06 09:59:24;;;;;;;0.30;0.30;;;;;;;7.11;100.00;99293.28;5037027;28;20044;-60
2024/02/06 10:01:52;;;;;;;0.38;0.38;;;;;;;7.12;100.00;99294.91;5037687;28;20570;-59
2024/02/06 10:04:21;;;;;;;0.30;0.30;;;;;;;7.21;100.00;99289.28;5041858;28;20158;-59
2024/02/06 10:06:49;;;;;;;0.20;0.20;;;;;;;7.03;100.00;99304.19;5041849;28;20049;-60
2024/02/06 10:09:18;;;;;;;0.40;0.40;;;;;;;7.20;100.00;99285.81;5038392;28;20052;-60
2024/02/06 10:11:45;;;;;;;0.40;0.40;;;;;;;7.28;100.00;99290.03;5043147;28;20049;-58
2024/02/06 10:14:12;;;;;;;0.35;0.35;;;;;;;7.17;100.00;99296.09;5042617;28;20059;-58
2024/02/06 10:16:41;;;;;;;0.40;0.40;;;;;;;7.13;100.00;99291.19;5042253;28;20037;-58
2024/02/06 10:19:08;;;;;;;0.40;0.40;;;;;;;7.20;100.00;99283.16;5040425;28;20041;-59
2024/02/06 10:21:35;;;;;;;0.30;0.30;;;;;;;7.18;100.00;99284.41;5021010;28;20399;-59
2024/02/06 10:24:05;;;;;;;0.40;0.40;;;;;;;7.31;100.00;99300.25;5041391;28;20130;-59
2024/02/06 10:26:32;;;;;;;0.40;0.40;;;;;;;7.28;100.00;99287.38;5041483;28;20037;-58
2024/02/06 10:29:06;;;;;;;0.40;0.40;;;;;;;7.40;100.00;99301.63;5023571;28;20045;-58
2024/02/06 10:31:34;;;;;;;0.40;0.40;;;;;;;7.48;100.00;99287.19;5042410;28;20069;-58
2024/02/06 10:34:08;;;;;;;0.40;0.40;;;;;;;7.59;100.00;99286.47;5038389;28;20045;-59
2024/02/06 10:36:36;;;;;;;0.30;0.30;;;;;;;7.43;100.00;99293.19;5040155;28;20045;-59
2024/02/06 10:39:06;;;;;;;0.30;0.30;;;;;;;7.50;100.00;99291.25;5038918;28;20055;-59
2024/02/06 10:41:33;;;;;;;;;;;;;;;7.39;100.00;99286.69;5043006;28;20487;-59
2024/02/06 10:44:00;;;;;;;0.40;0.40;;;;;;;7.40;100.00;99292.81;5042545;28;20021;-59
2024/02/06 10:46:28;;;;;;;0.35;0.35;;;;;;;7.28;100.00;99282.03;5035871;28;20136;-59
2024/02/06 10:49:04;;;;;;;0.30;0.30;;;;;;;7.46;100.00;99287.44;5037456;28;20075;-59
2024/02/06 10:51:32;;;;;;;0.30;0.30;;;;;;;7.40;100.00;99290.97;5037753;28;20044;-59
2024/02/06 10:54:00;;;;;;;0.30;0.30;;;;;;;7.44;100.00;99284.16;5039994;28;20049;-59
2024/02/06 10:56:29;;;;;;;0.30;0.30;;;;;;;7.45;100.00;99284.97;5038894;28;20728;-60
2024/02/06 10:58:57;;;;;;;0.22;0.22;;;;;;;7.50;100.00;99285.94;5039780;28;20049;-57
2024/02/06 11:01:28;;;;;;;0.20;0.20;;;;;;;7.49;100.00;99280.84;5036389;28;20658;-58
2024/02/06 11:03:57;;;;;;;0.30;0.30;;;;;;;7.53;100.00;99277.47;5038905;28;20317;-58
2024/02/06 11:06:26;;;;;;;0.30;0.30;;;;;;;7.47;100.00;99277.56;5037980;28;20072;-58
2024/02/06 11:08:55;;;;;;;0.30;0.30;;;;;;;7.60;100.00;99271.28;5039944;28;20130;-58
2024/02/06 11:11:24;;;;;;;0.40;0.40;;;;;;;7.49;100.00;99268.31;5004465;28;20036;-58
2024/02/06 11:13:53;;;;;;;0.30;0.30;;;;;;;7.37;100.00;99259.41;5036685;28;20057;-58
2024/02/06 11:16:20;;;;;;;0.30;0.30;;;;;;;7.43;100.00;99261.19;5036354;28;20159;-59
2024/02/06 11:18:51;;;;;;;0.30;0.30;;;;;;;7.55;100.00;99247.94;5022571;28;20094;-59
2024/02/06 11:21:19;;;;;;;0.30;0.30;;;;;;;7.35;100.00;99245.47;5039353;28;20049;-59
2024/02/06 11:23:47;;;;;;;0.30;0.30;;;;;;;7.46;100.00;99243.91;5038797;28;20040;-59
2024/02/06 11:26:14;;;;;;;0.20;0.20;;;;;;;7.50;100.00;99245.91;5036862;28;20055;-59
2024/02/06 11:28:42;;;;;;;0.32;0.32;;;;;;;7.41;100.00;99236.56;5039573;28;20041;-59
2024/02/06 11:31:12;;;;;;;0.40;0.40;;;;;;;7.31;100.00;99239.78;5037890;28;20131;-59
2024/02/06 11:33:41;;;;;;;0.30;0.30;;;;;;;7.34;100.00;99222.53;5017010;28;20130;-59
2024/02/06 11:36:12;;;;;;;0.40;0.40;;;;;;;7.44;100.00;99230.81;5018456;28;20041;-59